Tributaries of Morava river

Břeclav-Ladná (Thaya)

Date and time (UTC) H (cm) Q (m3/s)
13. 7. 2020 12:00 103 62.9
13. 7. 2020 11:00 101 61
13. 7. 2020 10:00 97 59
13. 7. 2020 09:00 89 53
13. 7. 2020 08:00 88 52
13. 7. 2020 07:00 88 52
13. 7. 2020 06:00 88 52
13. 7. 2020 05:00 88 52
13. 7. 2020 04:00 88 52
13. 7. 2020 03:00 88 52
13. 7. 2020 02:00 88 52
13. 7. 2020 01:00 88 52
13. 7. 2020 00:00 87 52

H - water level, Q - discharge

Dluhonice (Bečva)

Date and time (UTC) H (cm) Q (m3/s)
13. 7. 2020 12:10 136 12.6
13. 7. 2020 12:00 137 13
13. 7. 2020 11:00 137 13
13. 7. 2020 10:00 137 13
13. 7. 2020 09:00 138 14
13. 7. 2020 08:00 138 14
13. 7. 2020 07:00 139 14
13. 7. 2020 06:00 139 14
13. 7. 2020 05:00 140 15
13. 7. 2020 04:00 140 15
13. 7. 2020 03:00 141 16
13. 7. 2020 02:00 141 16
13. 7. 2020 01:00 142 16
13. 7. 2020 00:00 142 16

H - water level, Q - discharge
Source data
Labe Basin Vltava Basin Povodí Moravy ČHMÚ